sensor_id;sensor_type;location;lat;lon;timestamp;P1;durP1;ratioP1;P2;durP2;ratioP2
3278;SDS011;1651;50.940;6.888;2023-07-22T00:01:08;6.90;;;4.80;;
3278;SDS011;1651;50.940;6.888;2023-07-22T00:03:35;7.83;;;4.93;;
3278;SDS011;1651;50.940;6.888;2023-07-22T00:06:03;6.73;;;5.20;;
3278;SDS011;1651;50.940;6.888;2023-07-22T00:08:30;6.10;;;4.47;;
3278;SDS011;1651;50.940;6.888;2023-07-22T00:10:56;5.77;;;4.57;;
3278;SDS011;1651;50.940;6.888;2023-07-22T00:13:22;7.10;;;4.83;;
3278;SDS011;1651;50.940;6.888;2023-07-22T00:15:48;7.73;;;5.20;;
3278;SDS011;1651;50.940;6.888;2023-07-22T00:18:15;8.50;;;5.90;;
3278;SDS011;1651;50.940;6.888;2023-07-22T00:20:41;8.10;;;5.30;;
3278;SDS011;1651;50.940;6.888;2023-07-22T00:23:07;8.90;;;5.33;;
3278;SDS011;1651;50.940;6.888;2023-07-22T00:25:35;5.47;;;4.30;;
3278;SDS011;1651;50.940;6.888;2023-07-22T00:28:01;10.80;;;5.73;;
3278;SDS011;1651;50.940;6.888;2023-07-22T00:30:27;7.17;;;5.00;;
3278;SDS011;1651;50.940;6.888;2023-07-22T00:32:54;8.27;;;5.57;;
3278;SDS011;1651;50.940;6.888;2023-07-22T00:35:20;7.87;;;5.87;;
3278;SDS011;1651;50.940;6.888;2023-07-22T00:37:46;4.90;;;3.87;;
3278;SDS011;1651;50.940;6.888;2023-07-22T00:40:12;9.13;;;6.00;;
3278;SDS011;1651;50.940;6.888;2023-07-22T00:42:39;9.33;;;5.63;;
3278;SDS011;1651;50.940;6.888;2023-07-22T00:45:05;6.80;;;4.93;;
3278;SDS011;1651;50.940;6.888;2023-07-22T00:47:32;7.33;;;5.43;;
3278;SDS011;1651;50.940;6.888;2023-07-22T00:49:59;8.13;;;6.17;;
3278;SDS011;1651;50.940;6.888;2023-07-22T00:52:25;8.90;;;5.10;;
3278;SDS011;1651;50.940;6.888;2023-07-22T00:54:51;8.43;;;6.13;;
3278;SDS011;1651;50.940;6.888;2023-07-22T00:57:17;9.10;;;5.40;;
3278;SDS011;1651;50.940;6.888;2023-07-22T00:59:44;5.60;;;5.00;;
3278;SDS011;1651;50.940;6.888;2023-07-22T01:02:10;7.30;;;5.17;;
3278;SDS011;1651;50.940;6.888;2023-07-22T01:04:37;9.30;;;5.97;;
3278;SDS011;1651;50.940;6.888;2023-07-22T01:07:03;7.90;;;5.73;;
3278;SDS011;1651;50.940;6.888;2023-07-22T01:09:38;8.00;;;5.50;;
3278;SDS011;1651;50.940;6.888;2023-07-22T01:12:04;6.37;;;5.20;;
3278;SDS011;1651;50.940;6.888;2023-07-22T01:14:33;6.80;;;5.70;;
3278;SDS011;1651;50.940;6.888;2023-07-22T01:17:03;5.50;;;4.63;;
3278;SDS011;1651;50.940;6.888;2023-07-22T01:19:30;8.20;;;6.30;;
3278;SDS011;1651;50.940;6.888;2023-07-22T01:22:03;9.60;;;5.40;;
3278;SDS011;1651;50.940;6.888;2023-07-22T01:24:29;6.00;;;5.00;;
3278;SDS011;1651;50.940;6.888;2023-07-22T01:26:56;9.17;;;5.20;;
3278;SDS011;1651;50.940;6.888;2023-07-22T01:29:22;8.57;;;6.27;;
3278;SDS011;1651;50.940;6.888;2023-07-22T01:31:50;8.03;;;5.60;;
3278;SDS011;1651;50.940;6.888;2023-07-22T01:34:16;10.20;;;6.00;;
3278;SDS011;1651;50.940;6.888;2023-07-22T01:36:42;7.73;;;5.40;;
3278;SDS011;1651;50.940;6.888;2023-07-22T01:39:08;7.93;;;5.37;;
3278;SDS011;1651;50.940;6.888;2023-07-22T01:41:36;8.73;;;6.20;;
3278;SDS011;1651;50.940;6.888;2023-07-22T01:44:02;8.30;;;6.20;;
3278;SDS011;1651;50.940;6.888;2023-07-22T01:46:28;7.43;;;6.00;;
3278;SDS011;1651;50.940;6.888;2023-07-22T01:48:57;12.10;;;6.60;;
3278;SDS011;1651;50.940;6.888;2023-07-22T01:51:23;8.93;;;4.73;;
3278;SDS011;1651;50.940;6.888;2023-07-22T01:53:50;9.60;;;5.90;;
3278;SDS011;1651;50.940;6.888;2023-07-22T01:56:17;7.27;;;5.70;;
3278;SDS011;1651;50.940;6.888;2023-07-22T01:58:45;8.13;;;6.70;;
3278;SDS011;1651;50.940;6.888;2023-07-22T02:01:11;7.10;;;5.77;;
3278;SDS011;1651;50.940;6.888;2023-07-22T02:03:40;10.93;;;7.20;;
3278;SDS011;1651;50.940;6.888;2023-07-22T02:06:06;8.43;;;6.10;;
3278;SDS011;1651;50.940;6.888;2023-07-22T02:08:32;8.80;;;6.27;;
3278;SDS011;1651;50.940;6.888;2023-07-22T02:11:01;9.53;;;6.00;;
3278;SDS011;1651;50.940;6.888;2023-07-22T02:13:29;6.40;;;5.60;;
3278;SDS011;1651;50.940;6.888;2023-07-22T02:15:55;6.37;;;4.97;;
3278;SDS011;1651;50.940;6.888;2023-07-22T02:18:21;8.87;;;6.37;;
3278;SDS011;1651;50.940;6.888;2023-07-22T02:20:47;8.40;;;5.60;;
3278;SDS011;1651;50.940;6.888;2023-07-22T02:23:13;8.27;;;5.90;;
3278;SDS011;1651;50.940;6.888;2023-07-22T02:25:39;8.77;;;6.00;;
3278;SDS011;1651;50.940;6.888;2023-07-22T02:28:05;8.67;;;6.40;;
3278;SDS011;1651;50.940;6.888;2023-07-22T02:30:35;10.20;;;6.40;;
3278;SDS011;1651;50.940;6.888;2023-07-22T02:33:02;9.13;;;6.07;;
3278;SDS011;1651;50.940;6.888;2023-07-22T02:35:28;7.77;;;6.30;;
3278;SDS011;1651;50.940;6.888;2023-07-22T02:37:54;11.80;;;6.47;;
3278;SDS011;1651;50.940;6.888;2023-07-22T02:40:20;8.40;;;6.80;;
3278;SDS011;1651;50.940;6.888;2023-07-22T02:42:46;9.70;;;7.77;;
3278;SDS011;1651;50.940;6.888;2023-07-22T02:45:12;10.13;;;6.43;;
3278;SDS011;1651;50.940;6.888;2023-07-22T02:47:38;10.40;;;6.50;;
3278;SDS011;1651;50.940;6.888;2023-07-22T02:50:05;11.27;;;7.53;;
3278;SDS011;1651;50.940;6.888;2023-07-22T02:52:31;8.73;;;6.40;;
3278;SDS011;1651;50.940;6.888;2023-07-22T02:55:05;11.07;;;7.20;;
3278;SDS011;1651;50.940;6.888;2023-07-22T02:57:32;9.20;;;7.20;;
3278;SDS011;1651;50.940;6.888;2023-07-22T02:59:58;8.93;;;6.90;;
3278;SDS011;1651;50.940;6.888;2023-07-22T03:02:24;9.43;;;7.40;;
3278;SDS011;1651;50.940;6.888;2023-07-22T03:07:19;6.97;;;6.13;;
3278;SDS011;1651;50.940;6.888;2023-07-22T03:09:45;9.50;;;6.90;;
3278;SDS011;1651;50.940;6.888;2023-07-22T03:12:11;8.87;;;7.10;;
3278;SDS011;1651;50.940;6.888;2023-07-22T03:14:37;11.13;;;6.87;;
3278;SDS011;1651;50.940;6.888;2023-07-22T03:17:03;9.07;;;7.70;;
3278;SDS011;1651;50.940;6.888;2023-07-22T03:19:31;9.47;;;6.47;;
3278;SDS011;1651;50.940;6.888;2023-07-22T03:21:56;10.50;;;7.17;;
3278;SDS011;1651;50.940;6.888;2023-07-22T03:24:23;12.57;;;7.60;;
3278;SDS011;1651;50.940;6.888;2023-07-22T03:26:50;11.33;;;7.20;;
3278;SDS011;1651;50.940;6.888;2023-07-22T03:29:16;10.60;;;7.17;;
3278;SDS011;1651;50.940;6.888;2023-07-22T03:31:42;8.57;;;6.53;;
3278;SDS011;1651;50.940;6.888;2023-07-22T03:34:08;10.40;;;6.30;;
3278;SDS011;1651;50.940;6.888;2023-07-22T03:36:34;9.70;;;6.93;;
3278;SDS011;1651;50.940;6.888;2023-07-22T03:39:00;11.60;;;7.73;;
3278;SDS011;1651;50.940;6.888;2023-07-22T03:41:28;8.33;;;6.90;;
3278;SDS011;1651;50.940;6.888;2023-07-22T03:43:54;8.83;;;7.20;;
3278;SDS011;1651;50.940;6.888;2023-07-22T03:46:20;9.17;;;6.77;;
3278;SDS011;1651;50.940;6.888;2023-07-22T03:48:46;12.50;;;8.07;;
3278;SDS011;1651;50.940;6.888;2023-07-22T03:51:12;10.40;;;7.93;;
3278;SDS011;1651;50.940;6.888;2023-07-22T03:53:38;10.50;;;7.47;;
3278;SDS011;1651;50.940;6.888;2023-07-22T03:56:04;10.20;;;7.23;;
3278;SDS011;1651;50.940;6.888;2023-07-22T03:58:30;10.47;;;7.40;;
3278;SDS011;1651;50.940;6.888;2023-07-22T04:00:56;9.73;;;7.00;;
3278;SDS011;1651;50.940;6.888;2023-07-22T04:03:22;9.33;;;7.67;;
3278;SDS011;1651;50.940;6.888;2023-07-22T04:05:54;11.40;;;8.47;;
3278;SDS011;1651;50.940;6.888;2023-07-22T04:08:20;11.33;;;7.67;;
3278;SDS011;1651;50.940;6.888;2023-07-22T04:10:54;12.37;;;8.60;;
3278;SDS011;1651;50.940;6.888;2023-07-22T04:13:20;11.47;;;8.33;;
3278;SDS011;1651;50.940;6.888;2023-07-22T04:15:46;11.40;;;8.40;;
3278;SDS011;1651;50.940;6.888;2023-07-22T04:18:12;12.87;;;7.83;;
3278;SDS011;1651;50.940;6.888;2023-07-22T04:20:39;9.37;;;7.17;;
3278;SDS011;1651;50.940;6.888;2023-07-22T04:23:06;9.23;;;7.30;;
3278;SDS011;1651;50.940;6.888;2023-07-22T04:25:32;8.67;;;6.93;;
3278;SDS011;1651;50.940;6.888;2023-07-22T04:27:58;10.97;;;7.63;;
3278;SDS011;1651;50.940;6.888;2023-07-22T04:30:24;11.63;;;6.40;;
3278;SDS011;1651;50.940;6.888;2023-07-22T04:32:50;9.60;;;6.70;;
3278;SDS011;1651;50.940;6.888;2023-07-22T04:35:16;9.50;;;7.30;;
3278;SDS011;1651;50.940;6.888;2023-07-22T04:37:43;10.77;;;6.77;;
3278;SDS011;1651;50.940;6.888;2023-07-22T04:40:10;9.77;;;6.43;;
3278;SDS011;1651;50.940;6.888;2023-07-22T04:42:39;8.30;;;6.60;;
3278;SDS011;1651;50.940;6.888;2023-07-22T04:45:09;9.73;;;6.67;;
3278;SDS011;1651;50.940;6.888;2023-07-22T04:47:36;10.37;;;6.97;;
3278;SDS011;1651;50.940;6.888;2023-07-22T04:50:02;8.87;;;6.57;;
3278;SDS011;1651;50.940;6.888;2023-07-22T04:52:29;8.23;;;6.33;;
3278;SDS011;1651;50.940;6.888;2023-07-22T04:54:55;9.20;;;6.10;;
3278;SDS011;1651;50.940;6.888;2023-07-22T04:57:21;10.70;;;6.70;;
3278;SDS011;1651;50.940;6.888;2023-07-22T04:59:47;8.77;;;6.67;;
3278;SDS011;1651;50.940;6.888;2023-07-22T05:02:13;9.50;;;6.60;;
3278;SDS011;1651;50.940;6.888;2023-07-22T05:04:39;8.60;;;6.60;;
3278;SDS011;1651;50.940;6.888;2023-07-22T05:07:05;9.87;;;6.80;;
3278;SDS011;1651;50.940;6.888;2023-07-22T05:09:31;7.63;;;6.00;;
3278;SDS011;1651;50.940;6.888;2023-07-22T05:11:59;8.07;;;6.00;;
3278;SDS011;1651;50.940;6.888;2023-07-22T05:14:25;7.90;;;5.60;;
3278;SDS011;1651;50.940;6.888;2023-07-22T05:16:51;9.87;;;7.53;;
3278;SDS011;1651;50.940;6.888;2023-07-22T05:19:17;6.47;;;5.40;;
3278;SDS011;1651;50.940;6.888;2023-07-22T05:21:45;9.43;;;6.60;;
3278;SDS011;1651;50.940;6.888;2023-07-22T05:24:11;8.70;;;5.70;;
3278;SDS011;1651;50.940;6.888;2023-07-22T05:26:37;7.40;;;5.73;;
3278;SDS011;1651;50.940;6.888;2023-07-22T05:29:03;7.40;;;5.43;;
3278;SDS011;1651;50.940;6.888;2023-07-22T05:31:29;5.60;;;4.53;;
3278;SDS011;1651;50.940;6.888;2023-07-22T05:33:56;7.77;;;5.87;;
3278;SDS011;1651;50.940;6.888;2023-07-22T05:36:24;9.70;;;6.23;;
3278;SDS011;1651;50.940;6.888;2023-07-22T05:38:50;7.77;;;5.60;;
3278;SDS011;1651;50.940;6.888;2023-07-22T05:41:16;8.43;;;5.60;;
3278;SDS011;1651;50.940;6.888;2023-07-22T05:43:42;8.53;;;5.67;;
3278;SDS011;1651;50.940;6.888;2023-07-22T05:46:08;7.90;;;5.57;;
3278;SDS011;1651;50.940;6.888;2023-07-22T05:48:34;8.90;;;5.93;;
3278;SDS011;1651;50.940;6.888;2023-07-22T05:51:00;8.90;;;6.03;;
3278;SDS011;1651;50.940;6.888;2023-07-22T05:53:25;8.20;;;5.23;;
3278;SDS011;1651;50.940;6.888;2023-07-22T05:55:52;7.30;;;5.07;;
3278;SDS011;1651;50.940;6.888;2023-07-22T05:58:22;8.00;;;5.40;;
3278;SDS011;1651;50.940;6.888;2023-07-22T06:04:13;7.23;;;5.37;;
3278;SDS011;1651;50.940;6.888;2023-07-22T06:06:39;7.13;;;5.93;;
3278;SDS011;1651;50.940;6.888;2023-07-22T06:09:05;6.40;;;5.53;;
3278;SDS011;1651;50.940;6.888;2023-07-22T06:11:31;6.83;;;5.43;;
3278;SDS011;1651;50.940;6.888;2023-07-22T06:13:57;6.93;;;5.77;;
3278;SDS011;1651;50.940;6.888;2023-07-22T06:16:23;7.67;;;6.60;;
3278;SDS011;1651;50.940;6.888;2023-07-22T06:18:49;7.53;;;6.30;;
3278;SDS011;1651;50.940;6.888;2023-07-22T06:21:14;9.60;;;7.50;;
3278;SDS011;1651;50.940;6.888;2023-07-22T06:23:41;8.97;;;8.07;;
3278;SDS011;1651;50.940;6.888;2023-07-22T06:26:07;11.60;;;7.00;;
3278;SDS011;1651;50.940;6.888;2023-07-22T06:28:33;9.60;;;7.43;;
3278;SDS011;1651;50.940;6.888;2023-07-22T06:31:00;9.47;;;7.00;;
3278;SDS011;1651;50.940;6.888;2023-07-22T06:33:26;8.67;;;7.00;;
3278;SDS011;1651;50.940;6.888;2023-07-22T06:35:52;8.70;;;7.57;;
3278;SDS011;1651;50.940;6.888;2023-07-22T06:38:17;8.27;;;7.40;;
3278;SDS011;1651;50.940;6.888;2023-07-22T06:40:43;9.20;;;7.80;;
3278;SDS011;1651;50.940;6.888;2023-07-22T06:43:09;9.20;;;7.70;;
3278;SDS011;1651;50.940;6.888;2023-07-22T06:45:35;8.60;;;7.07;;
3278;SDS011;1651;50.940;6.888;2023-07-22T06:48:01;8.00;;;6.47;;
3278;SDS011;1651;50.940;6.888;2023-07-22T06:50:28;8.27;;;7.07;;
3278;SDS011;1651;50.940;6.888;2023-07-22T06:52:54;8.20;;;7.10;;
3278;SDS011;1651;50.940;6.888;2023-07-22T06:55:20;9.90;;;7.13;;
3278;SDS011;1651;50.940;6.888;2023-07-22T06:57:48;8.90;;;6.77;;
3278;SDS011;1651;50.940;6.888;2023-07-22T07:00:14;9.73;;;7.33;;
3278;SDS011;1651;50.940;6.888;2023-07-22T07:02:40;8.87;;;6.97;;
3278;SDS011;1651;50.940;6.888;2023-07-22T07:05:07;9.60;;;7.20;;
3278;SDS011;1651;50.940;6.888;2023-07-22T07:07:33;11.00;;;6.50;;
3278;SDS011;1651;50.940;6.888;2023-07-22T07:09:59;7.83;;;6.80;;
3278;SDS011;1651;50.940;6.888;2023-07-22T07:12:25;7.50;;;6.33;;
3278;SDS011;1651;50.940;6.888;2023-07-22T07:14:51;7.07;;;5.83;;
3278;SDS011;1651;50.940;6.888;2023-07-22T07:17:17;8.63;;;6.00;;
3278;SDS011;1651;50.940;6.888;2023-07-22T07:19:43;9.73;;;6.63;;
3278;SDS011;1651;50.940;6.888;2023-07-22T07:22:09;7.17;;;6.03;;
3278;SDS011;1651;50.940;6.888;2023-07-22T07:24:36;8.23;;;6.50;;
3278;SDS011;1651;50.940;6.888;2023-07-22T07:27:02;7.07;;;5.57;;
3278;SDS011;1651;50.940;6.888;2023-07-22T07:29:28;7.93;;;6.60;;
3278;SDS011;1651;50.940;6.888;2023-07-22T07:31:54;8.30;;;6.50;;
3278;SDS011;1651;50.940;6.888;2023-07-22T07:34:20;8.70;;;5.87;;
3278;SDS011;1651;50.940;6.888;2023-07-22T07:36:46;6.43;;;5.50;;
3278;SDS011;1651;50.940;6.888;2023-07-22T07:39:13;6.10;;;5.10;;
3278;SDS011;1651;50.940;6.888;2023-07-22T07:41:39;6.97;;;6.07;;
3278;SDS011;1651;50.940;6.888;2023-07-22T07:44:06;7.93;;;7.03;;
3278;SDS011;1651;50.940;6.888;2023-07-22T07:46:32;6.73;;;6.03;;
3278;SDS011;1651;50.940;6.888;2023-07-22T07:48:59;8.63;;;6.00;;
3278;SDS011;1651;50.940;6.888;2023-07-22T07:51:29;9.27;;;5.83;;
3278;SDS011;1651;50.940;6.888;2023-07-22T07:53:56;6.20;;;5.60;;
3278;SDS011;1651;50.940;6.888;2023-07-22T07:56:23;6.73;;;5.93;;
3278;SDS011;1651;50.940;6.888;2023-07-22T07:58:49;6.73;;;5.90;;
3278;SDS011;1651;50.940;6.888;2023-07-22T08:01:18;7.80;;;5.90;;
3278;SDS011;1651;50.940;6.888;2023-07-22T08:03:44;8.13;;;6.20;;
3278;SDS011;1651;50.940;6.888;2023-07-22T08:06:11;8.80;;;5.50;;
3278;SDS011;1651;50.940;6.888;2023-07-22T08:08:37;7.47;;;5.07;;
3278;SDS011;1651;50.940;6.888;2023-07-22T08:11:07;5.70;;;4.77;;
3278;SDS011;1651;50.940;6.888;2023-07-22T08:13:33;6.67;;;5.10;;
3278;SDS011;1651;50.940;6.888;2023-07-22T08:16:04;5.53;;;4.90;;
3278;SDS011;1651;50.940;6.888;2023-07-22T08:18:51;5.47;;;4.97;;
3278;SDS011;1651;50.940;6.888;2023-07-22T08:21:16;6.20;;;4.90;;
3278;SDS011;1651;50.940;6.888;2023-07-22T08:23:42;5.63;;;5.13;;
3278;SDS011;1651;50.940;6.888;2023-07-22T08:26:11;5.40;;;4.60;;
3278;SDS011;1651;50.940;6.888;2023-07-22T08:28:37;5.20;;;4.70;;
3278;SDS011;1651;50.940;6.888;2023-07-22T08:31:03;5.63;;;4.87;;
3278;SDS011;1651;50.940;6.888;2023-07-22T08:33:30;8.47;;;4.97;;
3278;SDS011;1651;50.940;6.888;2023-07-22T08:35:56;4.90;;;4.40;;
3278;SDS011;1651;50.940;6.888;2023-07-22T08:38:22;8.67;;;4.40;;
3278;SDS011;1651;50.940;6.888;2023-07-22T08:40:51;7.00;;;4.27;;
3278;SDS011;1651;50.940;6.888;2023-07-22T08:43:19;5.67;;;4.03;;
3278;SDS011;1651;50.940;6.888;2023-07-22T08:45:46;4.33;;;3.93;;
3278;SDS011;1651;50.940;6.888;2023-07-22T08:48:13;6.90;;;4.37;;
3278;SDS011;1651;50.940;6.888;2023-07-22T08:50:41;4.90;;;4.00;;
3278;SDS011;1651;50.940;6.888;2023-07-22T08:53:12;4.77;;;4.20;;
3278;SDS011;1651;50.940;6.888;2023-07-22T08:55:39;5.33;;;3.87;;
3278;SDS011;1651;50.940;6.888;2023-07-22T08:58:09;4.03;;;3.67;;
3278;SDS011;1651;50.940;6.888;2023-07-22T09:00:36;4.60;;;3.70;;
3278;SDS011;1651;50.940;6.888;2023-07-22T09:03:02;5.60;;;3.90;;
3278;SDS011;1651;50.940;6.888;2023-07-22T09:05:30;3.90;;;3.40;;
3278;SDS011;1651;50.940;6.888;2023-07-22T09:07:56;4.93;;;3.53;;
3278;SDS011;1651;50.940;6.888;2023-07-22T09:10:24;5.10;;;3.87;;
3278;SDS011;1651;50.940;6.888;2023-07-22T09:12:51;4.10;;;3.50;;
3278;SDS011;1651;50.940;6.888;2023-07-22T09:15:17;4.33;;;3.70;;
3278;SDS011;1651;50.940;6.888;2023-07-22T09:17:43;3.60;;;3.30;;
3278;SDS011;1651;50.940;6.888;2023-07-22T09:20:11;3.80;;;3.10;;
3278;SDS011;1651;50.940;6.888;2023-07-22T09:22:42;6.53;;;4.43;;
3278;SDS011;1651;50.940;6.888;2023-07-22T09:25:22;5.97;;;3.00;;
3278;SDS011;1651;50.940;6.888;2023-07-22T09:27:49;4.37;;;3.97;;
3278;SDS011;1651;50.940;6.888;2023-07-22T09:32:47;4.90;;;4.50;;
3278;SDS011;1651;50.940;6.888;2023-07-22T09:35:13;3.97;;;3.57;;
3278;SDS011;1651;50.940;6.888;2023-07-22T09:37:39;4.17;;;3.77;;
3278;SDS011;1651;50.940;6.888;2023-07-22T09:42:46;4.30;;;3.90;;
3278;SDS011;1651;50.940;6.888;2023-07-22T09:45:14;4.57;;;4.10;;
3278;SDS011;1651;50.940;6.888;2023-07-22T09:47:44;3.87;;;3.50;;
3278;SDS011;1651;50.940;6.888;2023-07-22T09:50:12;2.97;;;2.77;;
3278;SDS011;1651;50.940;6.888;2023-07-22T09:52:42;3.83;;;2.67;;
3278;SDS011;1651;50.940;6.888;2023-07-22T09:55:09;3.63;;;2.90;;
3278;SDS011;1651;50.940;6.888;2023-07-22T09:57:40;2.70;;;2.50;;
3278;SDS011;1651;50.940;6.888;2023-07-22T10:00:10;2.60;;;2.40;;
3278;SDS011;1651;50.940;6.888;2023-07-22T10:02:36;2.83;;;2.63;;
3278;SDS011;1651;50.940;6.888;2023-07-22T10:05:03;2.53;;;2.33;;
3278;SDS011;1651;50.940;6.888;2023-07-22T10:07:30;3.33;;;2.40;;
3278;SDS011;1651;50.940;6.888;2023-07-22T10:09:58;4.17;;;2.40;;
3278;SDS011;1651;50.940;6.888;2023-07-22T10:12:25;2.50;;;2.07;;
3278;SDS011;1651;50.940;6.888;2023-07-22T10:14:52;5.93;;;2.83;;
3278;SDS011;1651;50.940;6.888;2023-07-22T10:17:19;4.80;;;2.30;;
3278;SDS011;1651;50.940;6.888;2023-07-22T10:19:46;2.97;;;2.67;;
3278;SDS011;1651;50.940;6.888;2023-07-22T10:22:12;3.00;;;2.67;;
3278;SDS011;1651;50.940;6.888;2023-07-22T10:24:39;5.00;;;3.17;;
3278;SDS011;1651;50.940;6.888;2023-07-22T10:27:05;2.57;;;2.37;;
3278;SDS011;1651;50.940;6.888;2023-07-22T10:29:32;2.87;;;2.50;;
3278;SDS011;1651;50.940;6.888;2023-07-22T10:31:59;2.70;;;2.37;;
3278;SDS011;1651;50.940;6.888;2023-07-22T10:34:25;2.43;;;2.23;;
3278;SDS011;1651;50.940;6.888;2023-07-22T10:36:51;2.40;;;2.20;;
3278;SDS011;1651;50.940;6.888;2023-07-22T10:39:27;6.00;;;2.40;;
3278;SDS011;1651;50.940;6.888;2023-07-22T10:42:03;2.60;;;2.27;;
3278;SDS011;1651;50.940;6.888;2023-07-22T10:44:36;2.70;;;2.10;;
3278;SDS011;1651;50.940;6.888;2023-07-22T10:47:02;3.10;;;2.43;;
3278;SDS011;1651;50.940;6.888;2023-07-22T10:49:50;2.40;;;2.20;;
3278;SDS011;1651;50.940;6.888;2023-07-22T10:52:37;4.73;;;2.33;;
3278;SDS011;1651;50.940;6.888;2023-07-22T10:55:02;3.43;;;2.77;;
3278;SDS011;1651;50.940;6.888;2023-07-22T10:57:28;2.47;;;2.27;;
3278;SDS011;1651;50.940;6.888;2023-07-22T10:59:55;7.07;;;2.30;;
3278;SDS011;1651;50.940;6.888;2023-07-22T11:02:25;2.40;;;2.00;;
3278;SDS011;1651;50.940;6.888;2023-07-22T11:04:51;2.20;;;2.00;;
3278;SDS011;1651;50.940;6.888;2023-07-22T11:07:29;2.30;;;2.10;;
3278;SDS011;1651;50.940;6.888;2023-07-22T11:09:55;2.23;;;2.03;;
3278;SDS011;1651;50.940;6.888;2023-07-22T11:12:21;2.40;;;2.20;;
3278;SDS011;1651;50.940;6.888;2023-07-22T11:14:51;2.63;;;2.43;;
3278;SDS011;1651;50.940;6.888;2023-07-22T11:17:18;2.87;;;2.23;;
3278;SDS011;1651;50.940;6.888;2023-07-22T11:19:44;2.70;;;2.20;;
3278;SDS011;1651;50.940;6.888;2023-07-22T11:22:10;6.20;;;2.40;;
3278;SDS011;1651;50.940;6.888;2023-07-22T11:24:37;3.00;;;2.70;;
3278;SDS011;1651;50.940;6.888;2023-07-22T11:27:04;3.20;;;2.63;;
3278;SDS011;1651;50.940;6.888;2023-07-22T11:29:30;2.90;;;2.43;;
3278;SDS011;1651;50.940;6.888;2023-07-22T11:31:56;3.13;;;2.50;;
3278;SDS011;1651;50.940;6.888;2023-07-22T11:34:23;3.80;;;2.83;;
3278;SDS011;1651;50.940;6.888;2023-07-22T11:36:50;2.83;;;2.40;;
3278;SDS011;1651;50.940;6.888;2023-07-22T11:39:19;3.10;;;2.40;;
3278;SDS011;1651;50.940;6.888;2023-07-22T11:41:46;2.67;;;2.47;;
3278;SDS011;1651;50.940;6.888;2023-07-22T11:44:16;3.70;;;2.70;;
3278;SDS011;1651;50.940;6.888;2023-07-22T11:51:50;2.53;;;2.33;;
3278;SDS011;1651;50.940;6.888;2023-07-22T11:54:17;3.63;;;2.23;;
3278;SDS011;1651;50.940;6.888;2023-07-22T11:56:43;4.63;;;2.77;;
3278;SDS011;1651;50.940;6.888;2023-07-22T11:59:10;3.83;;;2.50;;
3278;SDS011;1651;50.940;6.888;2023-07-22T12:01:36;2.57;;;2.37;;
3278;SDS011;1651;50.940;6.888;2023-07-22T12:04:03;3.13;;;2.67;;
3278;SDS011;1651;50.940;6.888;2023-07-22T12:06:34;3.40;;;3.03;;
3278;SDS011;1651;50.940;6.888;2023-07-22T12:09:00;2.83;;;2.50;;
3278;SDS011;1651;50.940;6.888;2023-07-22T12:11:26;3.63;;;2.57;;
3278;SDS011;1651;50.940;6.888;2023-07-22T12:16:37;2.77;;;2.37;;
3278;SDS011;1651;50.940;6.888;2023-07-22T12:19:05;2.77;;;2.57;;
3278;SDS011;1651;50.940;6.888;2023-07-22T12:21:31;3.10;;;2.50;;
3278;SDS011;1651;50.940;6.888;2023-07-22T12:23:58;3.07;;;2.57;;
3278;SDS011;1651;50.940;6.888;2023-07-22T12:26:24;2.60;;;2.07;;
3278;SDS011;1651;50.940;6.888;2023-07-22T12:28:50;2.43;;;2.13;;
3278;SDS011;1651;50.940;6.888;2023-07-22T12:31:16;3.40;;;2.20;;
3278;SDS011;1651;50.940;6.888;2023-07-22T12:33:42;2.50;;;2.30;;
3278;SDS011;1651;50.940;6.888;2023-07-22T12:36:08;3.00;;;2.30;;
3278;SDS011;1651;50.940;6.888;2023-07-22T12:38:34;2.60;;;2.23;;
3278;SDS011;1651;50.940;6.888;2023-07-22T12:41:01;2.97;;;2.70;;
3278;SDS011;1651;50.940;6.888;2023-07-22T12:43:27;2.03;;;1.90;;
3278;SDS011;1651;50.940;6.888;2023-07-22T12:45:53;3.43;;;2.20;;
3278;SDS011;1651;50.940;6.888;2023-07-22T12:48:19;3.23;;;2.00;;
3278;SDS011;1651;50.940;6.888;2023-07-22T12:50:45;3.33;;;1.90;;
3278;SDS011;1651;50.940;6.888;2023-07-22T12:53:14;2.80;;;2.30;;
3278;SDS011;1651;50.940;6.888;2023-07-22T12:55:40;2.27;;;2.07;;
3278;SDS011;1651;50.940;6.888;2023-07-22T12:58:06;5.00;;;2.70;;
3278;SDS011;1651;50.940;6.888;2023-07-22T13:00:32;2.07;;;1.87;;
3278;SDS011;1651;50.940;6.888;2023-07-22T13:02:58;3.37;;;2.03;;
3278;SDS011;1651;50.940;6.888;2023-07-22T13:05:24;3.00;;;2.67;;
3278;SDS011;1651;50.940;6.888;2023-07-22T13:07:50;4.07;;;2.20;;
3278;SDS011;1651;50.940;6.888;2023-07-22T13:10:18;10.93;;;2.33;;
3278;SDS011;1651;50.940;6.888;2023-07-22T13:12:45;2.97;;;2.53;;
3278;SDS011;1651;50.940;6.888;2023-07-22T13:15:14;3.00;;;2.30;;
3278;SDS011;1651;50.940;6.888;2023-07-22T13:17:40;2.27;;;2.07;;
3278;SDS011;1651;50.940;6.888;2023-07-22T13:20:06;5.87;;;2.40;;
3278;SDS011;1651;50.940;6.888;2023-07-22T13:22:33;2.80;;;2.10;;
3278;SDS011;1651;50.940;6.888;2023-07-22T13:24:59;2.90;;;2.40;;
3278;SDS011;1651;50.940;6.888;2023-07-22T13:27:25;2.73;;;2.20;;
3278;SDS011;1651;50.940;6.888;2023-07-22T13:29:51;4.00;;;2.47;;
3278;SDS011;1651;50.940;6.888;2023-07-22T13:32:17;2.57;;;2.23;;
3278;SDS011;1651;50.940;6.888;2023-07-22T13:34:43;3.73;;;2.60;;
3278;SDS011;1651;50.940;6.888;2023-07-22T13:37:09;4.30;;;2.80;;
3278;SDS011;1651;50.940;6.888;2023-07-22T13:39:35;4.53;;;2.50;;
3278;SDS011;1651;50.940;6.888;2023-07-22T13:42:01;3.10;;;2.40;;
3278;SDS011;1651;50.940;6.888;2023-07-22T13:44:27;2.90;;;2.60;;
3278;SDS011;1651;50.940;6.888;2023-07-22T13:46:53;2.40;;;2.20;;
3278;SDS011;1651;50.940;6.888;2023-07-22T13:49:19;2.93;;;2.40;;
3278;SDS011;1651;50.940;6.888;2023-07-22T13:51:45;3.50;;;2.60;;
3278;SDS011;1651;50.940;6.888;2023-07-22T13:54:11;3.20;;;2.17;;
3278;SDS011;1651;50.940;6.888;2023-07-22T13:56:37;3.97;;;2.60;;
3278;SDS011;1651;50.940;6.888;2023-07-22T13:59:03;2.83;;;2.63;;
3278;SDS011;1651;50.940;6.888;2023-07-22T14:01:30;3.00;;;2.30;;
3278;SDS011;1651;50.940;6.888;2023-07-22T14:03:56;4.43;;;2.63;;
3278;SDS011;1651;50.940;6.888;2023-07-22T14:06:22;3.40;;;2.93;;
3278;SDS011;1651;50.940;6.888;2023-07-22T14:08:48;2.60;;;2.40;;
3278;SDS011;1651;50.940;6.888;2023-07-22T14:11:14;3.17;;;2.50;;
3278;SDS011;1651;50.940;6.888;2023-07-22T14:13:40;3.60;;;2.83;;
3278;SDS011;1651;50.940;6.888;2023-07-22T14:16:06;3.13;;;2.83;;
3278;SDS011;1651;50.940;6.888;2023-07-22T14:18:32;4.40;;;2.80;;
3278;SDS011;1651;50.940;6.888;2023-07-22T14:20:59;3.03;;;2.57;;
3278;SDS011;1651;50.940;6.888;2023-07-22T14:23:25;3.30;;;2.90;;
3278;SDS011;1651;50.940;6.888;2023-07-22T14:25:51;2.93;;;2.43;;
3278;SDS011;1651;50.940;6.888;2023-07-22T14:28:17;2.97;;;2.63;;
3278;SDS011;1651;50.940;6.888;2023-07-22T14:30:43;7.30;;;2.63;;
3278;SDS011;1651;50.940;6.888;2023-07-22T14:33:09;4.77;;;3.17;;
3278;SDS011;1651;50.940;6.888;2023-07-22T14:35:35;4.00;;;2.50;;
3278;SDS011;1651;50.940;6.888;2023-07-22T14:38:01;3.23;;;2.83;;
3278;SDS011;1651;50.940;6.888;2023-07-22T14:40:28;4.70;;;2.93;;
3278;SDS011;1651;50.940;6.888;2023-07-22T14:42:54;3.20;;;2.50;;
3278;SDS011;1651;50.940;6.888;2023-07-22T14:45:20;4.10;;;2.50;;
3278;SDS011;1651;50.940;6.888;2023-07-22T14:47:46;3.07;;;2.70;;
3278;SDS011;1651;50.940;6.888;2023-07-22T14:50:13;3.30;;;3.00;;
3278;SDS011;1651;50.940;6.888;2023-07-22T14:52:39;3.90;;;2.77;;
3278;SDS011;1651;50.940;6.888;2023-07-22T14:55:07;5.60;;;2.70;;
3278;SDS011;1651;50.940;6.888;2023-07-22T14:57:33;4.30;;;2.87;;
3278;SDS011;1651;50.940;6.888;2023-07-22T14:59:59;4.07;;;3.10;;
3278;SDS011;1651;50.940;6.888;2023-07-22T15:02:25;4.90;;;2.80;;
3278;SDS011;1651;50.940;6.888;2023-07-22T15:04:51;3.57;;;3.23;;
3278;SDS011;1651;50.940;6.888;2023-07-22T15:07:17;3.90;;;3.10;;
3278;SDS011;1651;50.940;6.888;2023-07-22T15:09:43;5.60;;;3.07;;
3278;SDS011;1651;50.940;6.888;2023-07-22T15:12:09;7.23;;;2.90;;
3278;SDS011;1651;50.940;6.888;2023-07-22T15:14:35;2.57;;;2.37;;
3278;SDS011;1651;50.940;6.888;2023-07-22T15:17:02;3.50;;;2.67;;
3278;SDS011;1651;50.940;6.888;2023-07-22T15:19:30;4.73;;;2.60;;
3278;SDS011;1651;50.940;6.888;2023-07-22T15:21:56;3.10;;;2.80;;
3278;SDS011;1651;50.940;6.888;2023-07-22T15:24:22;3.80;;;2.57;;
3278;SDS011;1651;50.940;6.888;2023-07-22T15:26:48;3.93;;;2.80;;
3278;SDS011;1651;50.940;6.888;2023-07-22T15:29:14;4.40;;;2.73;;
3278;SDS011;1651;50.940;6.888;2023-07-22T15:31:40;3.10;;;2.70;;